createdAt,value
2018-04-30T00:02:24.651Z,22.63
2018-04-30T00:04:52.330Z,23.93
2018-04-30T00:07:20.129Z,26.40
2018-04-30T00:09:47.801Z,25.07
2018-04-30T00:12:18.797Z,23.47
2018-04-30T00:14:47.260Z,24.83
2018-04-30T00:17:15.002Z,22.97
2018-04-30T00:19:43.421Z,20.03
2018-04-30T00:22:11.060Z,21.20
2018-04-30T00:24:39.646Z,19.43
2018-04-30T00:27:07.372Z,21.97
2018-04-30T00:29:35.096Z,20.93
2018-04-30T00:32:02.887Z,19.47
2018-04-30T00:34:30.693Z,21.50
2018-04-30T00:36:58.511Z,22.20
2018-04-30T00:39:27.860Z,23.53
2018-04-30T00:41:55.732Z,20.63
2018-04-30T00:44:24.296Z,17.60
2018-04-30T00:46:52.762Z,19.00
2018-04-30T00:49:22.818Z,19.87
2018-04-30T00:51:50.495Z,18.83
2018-04-30T00:54:29.743Z,19.77
2018-04-30T00:56:58.195Z,18.00
2018-04-30T00:59:25.862Z,22.37
2018-04-30T01:01:53.548Z,19.17
2018-04-30T01:04:21.245Z,18.23
2018-04-30T01:06:49.375Z,19.07
2018-04-30T01:09:20.997Z,19.47
2018-04-30T01:11:48.731Z,21.97
2018-04-30T01:14:17.342Z,19.13
2018-04-30T01:16:45.152Z,21.10
2018-04-30T01:19:13.614Z,18.43
2018-04-30T01:21:41.402Z,19.70
2018-04-30T01:24:09.112Z,19.73
2018-04-30T01:26:36.800Z,20.20
2018-04-30T01:29:04.516Z,19.63
2018-04-30T01:31:32.220Z,22.20
2018-04-30T01:34:00.009Z,22.63
2018-04-30T01:36:29.218Z,22.27
2018-04-30T01:38:56.934Z,24.13
2018-04-30T01:41:25.005Z,22.37
2018-04-30T01:43:52.828Z,22.60
2018-04-30T01:46:25.842Z,24.00
2018-04-30T01:48:53.605Z,22.87
2018-04-30T01:51:22.013Z,24.33
2018-04-30T01:53:49.897Z,26.63
2018-04-30T01:56:18.347Z,25.90
2018-04-30T01:58:46.106Z,29.40
2018-04-30T02:01:14.815Z,32.77
2018-04-30T02:03:43.373Z,27.30
2018-04-30T02:06:12.526Z,31.83
2018-04-30T02:08:40.187Z,31.17
2018-04-30T02:11:09.028Z,32.93
2018-04-30T02:13:36.789Z,28.77
2018-04-30T02:16:04.547Z,32.33
2018-04-30T02:18:33.061Z,27.13
2018-04-30T02:29:58.892Z,31.60
2018-04-30T02:32:26.542Z,29.87
2018-04-30T02:34:55.187Z,26.77
2018-04-30T02:37:23.513Z,30.33
2018-04-30T02:39:52.082Z,29.73
2018-04-30T02:42:21.796Z,31.47
2018-04-30T02:44:50.672Z,29.23
2018-04-30T02:47:18.480Z,36.83
2018-04-30T02:49:46.317Z,29.07
2018-04-30T02:52:14.758Z,35.07
2018-04-30T02:54:42.445Z,32.53
2018-04-30T02:57:10.299Z,30.13
2018-04-30T02:59:37.978Z,28.27
2018-04-30T03:02:06.518Z,30.83
2018-04-30T03:04:34.221Z,33.57
2018-04-30T03:07:02.041Z,37.23
2018-04-30T03:09:29.753Z,33.10
2018-04-30T03:11:57.433Z,34.33
2018-04-30T03:14:25.881Z,30.27
2018-04-30T03:16:55.463Z,33.63
2018-04-30T03:19:24.414Z,51.93
2018-04-30T03:21:52.095Z,33.03
2018-04-30T03:24:20.547Z,30.00
2018-04-30T03:26:48.898Z,28.63
2018-04-30T03:29:19.546Z,29.17
2018-04-30T03:31:47.356Z,36.07
2018-04-30T03:34:16.026Z,30.43
2018-04-30T03:36:44.525Z,38.53
2018-04-30T03:39:13.050Z,31.77
2018-04-30T03:41:40.748Z,30.67
2018-04-30T03:44:09.300Z,23.80
2018-04-30T03:46:37.080Z,29.77
2018-04-30T03:49:04.707Z,21.20
2018-04-30T03:51:32.478Z,23.67
2018-04-30T03:54:00.201Z,27.47
2018-04-30T03:56:27.889Z,33.63
2018-04-30T03:58:56.296Z,33.13
2018-04-30T04:01:36.010Z,34.10
2018-04-30T04:04:15.565Z,30.07
2018-04-30T04:06:53.051Z,32.67
2018-04-30T04:09:20.816Z,26.57
2018-04-30T04:11:48.490Z,25.97
2018-04-30T04:14:16.334Z,26.87
2018-04-30T04:16:44.133Z,21.27
2018-04-30T04:19:11.881Z,25.17
2018-04-30T04:21:40.957Z,25.97
2018-04-30T04:24:08.637Z,27.97
2018-04-30T04:26:36.459Z,25.33
2018-04-30T04:29:05.069Z,25.57
2018-04-30T04:31:33.873Z,35.07
2018-04-30T04:34:04.120Z,28.73
2018-04-30T04:36:34.637Z,25.97
2018-04-30T04:39:02.243Z,22.00
2018-04-30T04:41:29.961Z,24.47
2018-04-30T04:43:58.394Z,29.03
2018-04-30T04:46:26.093Z,25.20
2018-04-30T04:48:53.813Z,25.97
2018-04-30T04:51:22.293Z,21.37
2018-04-30T04:53:50.848Z,22.83
2018-04-30T04:56:18.598Z,20.10
2018-04-30T04:58:46.363Z,20.70
2018-04-30T05:01:14.070Z,21.83
2018-04-30T05:03:43.458Z,21.97
2018-04-30T05:06:11.342Z,19.43
2018-04-30T05:08:40.335Z,19.47
2018-04-30T05:11:08.780Z,20.37
2018-04-30T05:13:36.502Z,15.23
2018-04-30T05:16:05.174Z,21.87
2018-04-30T05:18:35.930Z,21.73
2018-04-30T05:21:03.646Z,19.00
2018-04-30T05:23:34.970Z,20.83
2018-04-30T05:26:02.761Z,19.97
2018-04-30T05:28:30.452Z,21.03
2018-04-30T05:30:58.211Z,21.60
2018-04-30T05:33:26.712Z,16.43
2018-04-30T05:35:54.476Z,17.47
2018-04-30T05:38:22.159Z,18.33
2018-04-30T05:40:50.590Z,13.10
2018-04-30T05:43:19.837Z,13.00
2018-04-30T05:45:47.620Z,13.40
2018-04-30T05:48:15.378Z,13.63
2018-04-30T05:50:43.294Z,10.67
2018-04-30T05:53:11.029Z,16.43
2018-04-30T05:55:38.687Z,16.73
2018-04-30T05:58:06.301Z,20.23
2018-04-30T06:00:33.901Z,13.07
2018-04-30T06:03:01.534Z,10.90
2018-04-30T06:05:29.202Z,12.30
2018-04-30T06:07:56.887Z,15.77
2018-04-30T06:10:24.495Z,12.60
2018-04-30T06:12:52.112Z,17.40
2018-04-30T06:15:19.739Z,12.90
2018-04-30T06:17:47.409Z,17.43
2018-04-30T06:20:14.995Z,12.00
2018-04-30T06:22:43.353Z,11.73
2018-04-30T06:25:12.676Z,15.10
2018-04-30T06:27:40.285Z,11.13
2018-04-30T06:30:07.880Z,14.07
2018-04-30T06:32:35.533Z,13.60
2018-04-30T06:35:03.089Z,13.30
2018-04-30T06:37:30.798Z,17.17
2018-04-30T06:39:58.388Z,12.17
2018-04-30T06:42:26.015Z,11.63
2018-04-30T06:44:53.575Z,11.50
2018-04-30T06:47:21.274Z,10.00
2018-04-30T06:49:48.953Z,12.33
2018-04-30T06:52:16.560Z,10.93
2018-04-30T06:54:44.188Z,14.27
2018-04-30T06:57:11.761Z,12.83
2018-04-30T06:59:39.393Z,16.97
2018-04-30T07:02:06.991Z,14.60
2018-04-30T07:04:34.606Z,9.87
2018-04-30T07:07:02.193Z,12.67
2018-04-30T07:09:30.040Z,10.10
2018-04-30T07:11:57.551Z,8.03
2018-04-30T07:14:25.139Z,11.40
2018-04-30T07:16:52.761Z,13.73
2018-04-30T07:19:20.409Z,12.03
2018-04-30T07:21:48.071Z,22.40
2018-04-30T07:24:15.631Z,18.97
2018-04-30T07:26:43.293Z,9.77
2018-04-30T07:29:10.917Z,10.83
2018-04-30T07:31:42.266Z,14.80
2018-04-30T07:34:09.967Z,17.97
2018-04-30T07:36:37.562Z,30.17
2018-04-30T07:39:06.246Z,30.50
2018-04-30T07:41:33.870Z,25.80
2018-04-30T07:44:01.473Z,34.93
2018-04-30T07:46:29.884Z,39.23
2018-04-30T07:48:57.537Z,37.27
2018-04-30T07:51:25.200Z,50.47
2018-04-30T07:53:53.065Z,44.30
2018-04-30T07:56:21.449Z,37.10
2018-04-30T07:58:49.065Z,44.00
2018-04-30T08:01:16.721Z,38.60
2018-04-30T08:03:44.358Z,40.30
2018-04-30T08:06:12.016Z,47.97
2018-04-30T08:08:39.642Z,43.43
2018-04-30T08:11:07.323Z,37.97
2018-04-30T08:13:35.035Z,35.67
2018-04-30T08:16:03.247Z,34.53
2018-04-30T08:18:30.919Z,29.30
2018-04-30T08:20:58.570Z,25.13
2018-04-30T08:23:26.189Z,21.20
2018-04-30T08:25:53.845Z,19.63
2018-04-30T08:28:21.516Z,25.50
2018-04-30T08:30:49.178Z,26.70
2018-04-30T08:33:16.825Z,25.97
2018-04-30T08:35:44.599Z,14.63
2018-04-30T08:38:13.199Z,16.43
2018-04-30T08:40:40.889Z,16.57
2018-04-30T08:43:20.117Z,11.23
2018-04-30T08:45:55.214Z,10.47
2018-04-30T08:48:30.844Z,7.57
2018-04-30T08:53:55.235Z,6.60
2018-04-30T08:56:27.779Z,7.13
2018-04-30T08:58:55.601Z,7.17
2018-04-30T09:01:23.213Z,8.10
2018-04-30T09:03:50.954Z,9.03
2018-04-30T09:06:18.603Z,6.93
2018-04-30T09:08:46.275Z,6.33
2018-04-30T09:11:13.966Z,7.00
2018-04-30T09:13:41.624Z,7.77
2018-04-30T09:16:09.229Z,7.17
2018-04-30T09:18:36.965Z,5.60
2018-04-30T09:21:05.396Z,6.20
2018-04-30T09:23:33.037Z,6.17
2018-04-30T09:26:00.689Z,5.80
2018-04-30T09:28:28.331Z,5.63
2018-04-30T09:30:57.334Z,6.77
2018-04-30T09:33:24.969Z,6.47
2018-04-30T09:35:53.394Z,5.07
2018-04-30T09:38:20.974Z,5.50
2018-04-30T09:40:48.646Z,6.90
2018-04-30T09:43:16.291Z,13.03
2018-04-30T09:45:43.943Z,3.30
2018-04-30T09:48:11.557Z,5.77
2018-04-30T09:50:39.264Z,6.90
2018-04-30T09:53:06.931Z,7.17
2018-04-30T09:55:34.576Z,6.53
2018-04-30T09:58:02.216Z,5.07
2018-04-30T10:00:29.880Z,6.97
2018-04-30T10:02:57.568Z,5.60
2018-04-30T10:05:25.253Z,7.23
2018-04-30T10:07:52.884Z,6.63
2018-04-30T10:10:20.590Z,6.43
2018-04-30T10:12:48.293Z,7.73
2018-04-30T10:15:17.720Z,8.10
2018-04-30T10:17:45.427Z,9.27
2018-04-30T10:20:13.086Z,7.83
2018-04-30T10:22:40.718Z,8.80
2018-04-30T10:25:08.379Z,8.33
2018-04-30T10:27:36.057Z,9.23
2018-04-30T10:30:03.729Z,8.57
2018-04-30T10:32:31.386Z,9.50
2018-04-30T10:34:59.048Z,9.13
2018-04-30T10:37:26.721Z,7.40
2018-04-30T10:39:54.387Z,9.80
2018-04-30T10:42:22.843Z,7.97
2018-04-30T10:44:50.480Z,7.57
2018-04-30T10:47:18.220Z,6.27
2018-04-30T10:49:45.880Z,9.43
2018-04-30T10:52:13.491Z,7.87
2018-04-30T10:54:41.107Z,11.50
2018-04-30T10:57:08.741Z,8.60
2018-04-30T10:59:36.508Z,10.60
2018-04-30T11:02:04.191Z,11.40
2018-04-30T11:04:32.600Z,11.27
2018-04-30T11:13:04.022Z,14.10
2018-04-30T11:15:33.868Z,14.87
2018-04-30T11:18:01.529Z,12.50
2018-04-30T11:20:29.982Z,11.07
2018-04-30T11:22:57.614Z,12.73
2018-04-30T11:25:25.259Z,14.10
2018-04-30T11:27:53.009Z,16.80
2018-04-30T11:30:20.653Z,12.90
2018-04-30T11:32:49.122Z,13.13
2018-04-30T11:35:17.641Z,12.40
2018-04-30T11:37:45.313Z,16.37
2018-04-30T11:40:12.921Z,14.47
2018-04-30T11:42:40.636Z,13.43
2018-04-30T11:45:08.303Z,13.50
2018-04-30T11:47:35.969Z,15.27
2018-04-30T11:50:03.687Z,13.37
2018-04-30T11:52:32.139Z,14.50
2018-04-30T11:55:00.787Z,13.57
2018-04-30T11:57:32.371Z,15.43
2018-04-30T12:00:00.032Z,13.00
2018-04-30T12:02:27.754Z,13.90
2018-04-30T12:04:55.566Z,14.80
2018-04-30T12:07:24.936Z,10.67
2018-04-30T12:09:52.651Z,5.90
2018-04-30T12:12:22.926Z,6.33
2018-04-30T12:14:50.592Z,5.97
2018-04-30T12:17:18.306Z,5.47
2018-04-30T12:19:46.696Z,5.73
2018-04-30T12:22:14.389Z,6.20
2018-04-30T12:24:42.021Z,7.13
2018-04-30T12:27:09.685Z,9.90
2018-04-30T12:29:38.128Z,7.67
2018-04-30T12:32:08.792Z,7.90
2018-04-30T12:34:36.403Z,7.00
2018-04-30T12:37:04.085Z,5.73
2018-04-30T12:39:31.720Z,5.77
2018-04-30T12:42:00.306Z,7.67
2018-04-30T12:44:27.922Z,7.80
2018-04-30T12:46:56.306Z,7.83
2018-04-30T12:49:24.025Z,7.87
2018-04-30T12:51:51.685Z,7.10
2018-04-30T12:54:19.358Z,7.73
2018-04-30T12:56:47.667Z,7.03
2018-04-30T12:59:27.068Z,7.13
2018-04-30T13:02:04.445Z,6.40
2018-04-30T13:04:37.409Z,6.50
2018-04-30T13:07:05.919Z,5.83
2018-04-30T13:09:33.608Z,8.10
2018-04-30T13:14:35.749Z,7.20
2018-04-30T13:17:03.367Z,6.27
2018-04-30T13:19:31.053Z,6.70
2018-04-30T13:21:59.490Z,5.63
2018-04-30T13:24:27.231Z,5.60
2018-04-30T13:27:05.063Z,6.90
2018-04-30T13:29:32.645Z,6.67
2018-04-30T13:32:00.317Z,5.80
2018-04-30T13:34:29.431Z,6.30
2018-04-30T13:37:00.676Z,6.07
2018-04-30T13:39:28.290Z,6.57
2018-04-30T13:41:55.916Z,5.70
2018-04-30T13:44:24.350Z,6.77
2018-04-30T13:46:52.010Z,5.57
2018-04-30T13:49:23.280Z,6.27
2018-04-30T13:54:55.416Z,4.30
2018-04-30T13:57:25.140Z,6.33
2018-04-30T13:59:52.827Z,5.10
2018-04-30T14:02:20.655Z,4.50
2018-04-30T14:04:48.293Z,4.20
2018-04-30T14:07:15.965Z,4.13
2018-04-30T14:10:07.718Z,4.80
2018-04-30T14:12:35.410Z,4.97
2018-04-30T14:17:36.608Z,4.87
2018-04-30T14:20:04.383Z,5.07
2018-04-30T14:22:32.176Z,7.03
2018-04-30T14:24:59.878Z,7.17
2018-04-30T14:27:27.559Z,6.37
2018-04-30T14:29:56.147Z,7.50
2018-04-30T14:32:25.337Z,6.60
2018-04-30T14:34:53.529Z,5.90
2018-04-30T14:37:22.001Z,5.57
2018-04-30T14:39:49.737Z,5.07
2018-04-30T14:42:17.465Z,4.40
2018-04-30T14:44:45.909Z,3.30
2018-04-30T14:47:13.567Z,2.80
2018-04-30T14:49:41.226Z,3.53
2018-04-30T14:52:08.895Z,3.80
2018-04-30T14:54:37.707Z,6.53
2018-04-30T14:57:05.372Z,4.57
2018-04-30T14:59:33.023Z,3.63
2018-04-30T15:02:00.663Z,3.23
2018-04-30T15:04:28.515Z,3.17
2018-04-30T15:06:56.205Z,3.77
2018-04-30T15:09:23.888Z,5.10
2018-04-30T15:11:51.519Z,4.90
2018-04-30T15:14:19.150Z,5.30
2018-04-30T15:16:47.539Z,5.27
2018-04-30T15:19:15.212Z,5.17
2018-04-30T15:21:42.934Z,4.90
2018-04-30T15:24:10.577Z,4.20
2018-04-30T15:26:38.272Z,6.53
2018-04-30T15:29:05.981Z,5.63
2018-04-30T15:31:33.688Z,8.23
2018-04-30T15:34:01.325Z,5.13
2018-04-30T15:36:29.001Z,4.77
2018-04-30T15:38:59.692Z,5.70
2018-04-30T15:41:27.336Z,4.83
2018-04-30T15:43:55.069Z,6.13
2018-04-30T15:46:22.748Z,5.00
2018-04-30T15:48:50.412Z,5.10
2018-04-30T15:51:18.950Z,5.73
2018-04-30T15:53:47.058Z,4.43
2018-04-30T17:11:02.114Z,9.03
2018-04-30T17:13:30.555Z,9.63
2018-04-30T17:15:58.207Z,9.60
2018-04-30T17:18:26.619Z,8.17
2018-04-30T17:20:54.291Z,9.53
2018-04-30T17:23:21.951Z,8.10
2018-04-30T17:25:49.631Z,7.73
2018-04-30T17:31:09.394Z,4.00
2018-04-30T17:33:39.623Z,11.30
2018-04-30T17:36:11.091Z,8.90
2018-04-30T17:38:40.467Z,4.40
2018-04-30T17:41:08.667Z,6.90
2018-04-30T17:43:41.376Z,5.00
2018-04-30T17:46:20.762Z,10.23
2018-04-30T17:48:51.450Z,5.60
2018-04-30T17:51:20.700Z,7.47
2018-04-30T17:54:07.901Z,11.17
2018-04-30T17:56:36.314Z,10.13
2018-04-30T17:59:11.712Z,7.33
2018-04-30T18:01:41.208Z,8.53
2018-04-30T18:06:51.625Z,9.20
2018-04-30T18:09:19.291Z,8.57
2018-04-30T18:14:24.775Z,8.30
2018-04-30T18:16:54.386Z,9.23
2018-04-30T18:19:22.793Z,7.73
2018-04-30T18:21:50.445Z,8.23
2018-04-30T18:24:19.237Z,8.37
2018-04-30T18:26:48.108Z,8.17
2018-04-30T18:29:16.303Z,9.20
2018-04-30T18:31:43.935Z,7.20
2018-04-30T18:34:12.213Z,9.13
2018-04-30T18:36:42.846Z,8.70
2018-04-30T18:39:10.497Z,12.27
2018-04-30T18:41:38.115Z,8.20
2018-04-30T18:44:05.816Z,7.27
2018-04-30T18:46:35.207Z,8.43
2018-04-30T18:49:02.898Z,9.27
2018-04-30T18:51:30.559Z,9.07
2018-04-30T18:53:58.213Z,7.37
2018-04-30T18:56:26.153Z,3.57
2018-04-30T18:58:53.981Z,8.57
2018-04-30T19:01:22.363Z,8.30
2018-04-30T19:03:50.786Z,7.73
2018-04-30T19:06:18.428Z,7.00
2018-04-30T19:08:53.725Z,6.37
2018-04-30T19:11:22.145Z,7.37
2018-04-30T19:13:49.807Z,11.17
2018-04-30T19:16:17.440Z,9.43
2018-04-30T19:18:46.367Z,12.57
2018-04-30T19:21:13.960Z,8.37
2018-04-30T19:26:14.151Z,8.40
2018-04-30T19:28:42.787Z,12.70
2018-04-30T19:31:10.405Z,7.10
2018-04-30T19:33:38.031Z,11.27
2018-04-30T19:36:07.858Z,12.50
2018-04-30T19:38:36.188Z,11.80
2018-04-30T19:41:04.759Z,10.80
2018-04-30T19:43:32.469Z,11.50
2018-04-30T19:46:00.898Z,7.30
2018-04-30T19:48:28.498Z,8.70
2018-04-30T19:50:56.964Z,9.73
2018-04-30T19:53:24.617Z,10.63
2018-04-30T19:55:52.301Z,13.77
2018-04-30T19:58:20.907Z,12.43
2018-04-30T20:00:51.025Z,10.77
2018-04-30T20:03:18.669Z,13.67
2018-04-30T20:05:46.293Z,14.27
2018-04-30T20:08:14.651Z,11.83
2018-04-30T20:10:42.860Z,9.77
2018-04-30T20:13:10.467Z,13.37
2018-04-30T20:15:38.840Z,7.80
2018-04-30T20:18:10.190Z,11.60
2018-04-30T20:20:42.841Z,10.30
2018-04-30T20:23:14.380Z,11.67
2018-04-30T20:25:44.912Z,11.37
2018-04-30T20:28:13.326Z,12.77
2018-04-30T20:30:41.354Z,11.40
2018-04-30T20:33:10.899Z,15.60
2018-04-30T20:35:43.365Z,12.80
2018-04-30T20:38:10.987Z,10.17
2018-04-30T20:40:38.624Z,8.77
2018-04-30T20:43:06.227Z,11.67
2018-04-30T20:45:33.860Z,7.33
2018-04-30T20:48:09.063Z,13.57
2018-04-30T20:50:37.421Z,12.80
2018-04-30T20:53:05.035Z,6.87
2018-04-30T20:55:32.615Z,9.07
2018-04-30T20:58:00.300Z,15.67
2018-04-30T21:00:31.839Z,6.37
2018-04-30T21:02:59.480Z,9.03
2018-04-30T21:05:27.060Z,12.00
2018-04-30T21:07:54.662Z,7.70
2018-04-30T21:10:22.273Z,8.03
2018-04-30T21:12:49.920Z,14.20
2018-04-30T21:15:17.455Z,10.80
2018-04-30T21:17:45.848Z,16.17
2018-04-30T21:20:13.390Z,10.60
2018-04-30T21:22:41.754Z,12.80
2018-04-30T21:25:09.298Z,12.20
2018-04-30T21:27:36.903Z,17.03
2018-04-30T21:30:04.515Z,10.17
2018-04-30T21:32:32.182Z,9.87
2018-04-30T21:34:59.748Z,14.97
2018-04-30T21:37:29.029Z,9.40
2018-04-30T21:39:56.558Z,13.07
2018-04-30T21:42:24.221Z,13.57
2018-04-30T21:44:51.758Z,12.47
2018-04-30T21:47:20.669Z,10.80
2018-04-30T21:49:48.217Z,8.80
2018-04-30T21:52:15.813Z,8.60
2018-04-30T21:54:44.508Z,7.73
2018-04-30T21:57:12.068Z,8.50
2018-04-30T21:59:39.694Z,14.07
2018-04-30T22:02:07.339Z,15.87
2018-04-30T22:04:35.681Z,16.00
2018-04-30T22:07:03.312Z,13.07
2018-04-30T22:09:31.678Z,16.23
2018-04-30T22:11:59.289Z,18.27
2018-04-30T22:14:26.892Z,14.77
2018-04-30T22:16:55.332Z,14.93
2018-04-30T22:19:23.678Z,12.40
2018-04-30T22:21:51.260Z,13.30
2018-04-30T22:24:18.808Z,17.13
2018-04-30T22:26:46.416Z,16.70
2018-04-30T22:29:14.790Z,17.80
2018-04-30T22:31:43.140Z,19.07
2018-04-30T22:34:10.699Z,23.00
2018-04-30T22:36:38.315Z,18.40
2018-04-30T22:39:09.798Z,18.30
2018-04-30T22:41:37.400Z,27.40
2018-04-30T22:44:04.992Z,22.40
2018-04-30T22:46:32.587Z,11.77
2018-04-30T22:49:00.126Z,13.87
2018-04-30T22:51:27.693Z,10.17
2018-04-30T22:53:55.304Z,14.83
2018-04-30T22:56:23.667Z,19.90
2018-04-30T22:58:51.305Z,13.47
2018-04-30T23:01:20.609Z,11.20
2018-04-30T23:03:48.171Z,14.60
2018-04-30T23:06:15.798Z,13.97
2018-04-30T23:08:43.359Z,18.53
2018-04-30T23:11:10.977Z,18.23
2018-04-30T23:13:38.569Z,19.83
2018-04-30T23:16:06.194Z,17.50
2018-04-30T23:18:33.778Z,18.57
2018-04-30T23:21:01.367Z,17.63
2018-04-30T23:23:28.967Z,21.03
2018-04-30T23:25:56.599Z,18.27
2018-04-30T23:28:24.214Z,13.93
2018-04-30T23:30:54.338Z,18.43
2018-04-30T23:33:22.703Z,17.33
2018-04-30T23:35:51.116Z,8.30
2018-04-30T23:38:18.724Z,15.70
2018-04-30T23:40:46.295Z,10.73
2018-04-30T23:43:13.857Z,12.37
2018-04-30T23:45:42.261Z,12.30
2018-04-30T23:48:10.692Z,16.10
2018-04-30T23:50:38.324Z,14.83
2018-04-30T23:53:05.931Z,13.43
2018-04-30T23:55:33.545Z,15.87
2018-04-30T23:58:01.095Z,9.63
